Main page
METAR-TAF:

METAR-TAF

Airports :

Chaudhary Charan Singh International Airport

Lucknow, India

latitude: 26-45N, longitude: 080-53E, elevation: 122 m

Current weather observation

The report was made 34 minutes ago, at 06:30 UTC
Wind 5 kt from the West
Temperature 30°C
Humidity 38%
Pressure 1011 hPa
Visibility: 5000 m
haze

METAR: VILK 050630Z 27005KT 5000 HZ NSC 30/14 Q1011 NOSIG

Time: 12:34 (07:04 UTC)

Forecast

The report was made 2 hours and 4 minutes ago, at 05:00 UTC
Forecast valid from 05 at 06 UTC to 06 at 12 UTC
Wind 6 kt from the West/Northwest
Visibility: 5000 m
haze
Becoming
from 05 at 18 UTC to 05 at 20 UTC
Wind 2 kt from variable directions
Visibility: 3000 m
haze, mist
Becoming
from 06 at 03 UTC to 06 at 05 UTC
Wind 5 kt from the West/Northwest
Visibility: 5000 m
haze

TAF: VILK 050500Z 0506/0612 29006KT 5000 HZ NSC BECMG 0518/0520 VRB02KT 3000 HZ BR BECMG 0603/0605 30005KT 5000 HZ

Weather observations and forecasts of more than 4000 airports (METAR and TAF reports).

The available stations are represented by yellow and red dots on the map.

Hover mouse over dot to see the name of the station.

Then click to see weather observations and forecasts.

To change the map : click on the green buttons with a black cross to zoom in, on the green button with a dash to zoom out, or on the green arrows for adjacent maps.


METAR-TAF: